Goodland, Minnesota
Current Conditions -  °F | °C
As of 2:55 AM on Sunday 23 Nov 2014 (Local Time) from KGPZ Reporting Station
Overcast Overcast  
Wind Chill: 36°   Ceiling: 200
Heat Index: 36°   Visibility: 1.2mi
Dew Point: 30°   Wind: 0mph
Humidity: 81%   Direction: NA
Pressure: 29.4"   Gusts: NA
Location:  47.16°N, 93.14°W
Report Text: KGPZ 230855Z AUTO 00000KT 1 1/4SM OVC002 02/M01 A2940 RMK AO1 57020
Loading
Personal Weather Stations






























Interactive Weather Map New forecast layout! Learn more

10-Day Weather Forecast

Advertisements
Track Severe Weather on mobile